sensor_id;sensor_type;location;lat;lon;timestamp;pressure;altitude;pressure_sealevel;temperature;humidity
18509;BME280;9383;50.928;12.116;2023-04-01T00:00:52;97067.66;;;8.70;100.00
18509;BME280;9383;50.928;12.116;2023-04-01T00:03:20;97058.91;;;8.69;100.00
18509;BME280;9383;50.928;12.116;2023-04-01T00:05:47;97068.53;;;8.70;100.00
18509;BME280;9383;50.928;12.116;2023-04-01T00:08:15;97069.28;;;8.72;100.00
18509;BME280;9383;50.928;12.116;2023-04-01T00:10:41;97068.41;;;8.72;100.00
18509;BME280;9383;50.928;12.116;2023-04-01T00:13:08;97065.78;;;8.72;100.00
18509;BME280;9383;50.928;12.116;2023-04-01T00:15:35;97069.38;;;8.71;100.00
18509;BME280;9383;50.928;12.116;2023-04-01T00:18:02;97073.88;;;8.69;100.00
18509;BME280;9383;50.928;12.116;2023-04-01T00:20:29;97076.53;;;8.69;100.00
18509;BME280;9383;50.928;12.116;2023-04-01T00:22:55;97074.84;;;8.68;100.00
18509;BME280;9383;50.928;12.116;2023-04-01T00:25:23;97066.91;;;8.68;100.00
18509;BME280;9383;50.928;12.116;2023-04-01T00:27:49;97074.84;;;8.68;100.00
18509;BME280;9383;50.928;12.116;2023-04-01T00:30:16;97060.88;;;8.66;100.00
18509;BME280;9383;50.928;12.116;2023-04-01T00:32:43;97067.09;;;8.65;100.00
18509;BME280;9383;50.928;12.116;2023-04-01T00:35:10;97067.94;;;8.65;100.00
18509;BME280;9383;50.928;12.116;2023-04-01T00:37:37;97063.50;;;8.66;100.00
18509;BME280;9383;50.928;12.116;2023-04-01T00:40:06;97062.66;;;8.65;100.00
18509;BME280;9383;50.928;12.116;2023-04-01T00:42:33;97065.28;;;8.65;100.00
18509;BME280;9383;50.928;12.116;2023-04-01T00:45:24;97060.00;;;8.65;100.00
18509;BME280;9383;50.928;12.116;2023-04-01T00:47:51;97053.88;;;8.65;100.00
18509;BME280;9383;50.928;12.116;2023-04-01T00:50:18;97059.16;;;8.65;100.00
18509;BME280;9383;50.928;12.116;2023-04-01T00:52:45;97060.00;;;8.65;100.00
18509;BME280;9383;50.928;12.116;2023-04-01T00:55:13;97063.59;;;8.64;100.00
18509;BME280;9383;50.928;12.116;2023-04-01T00:57:42;97062.75;;;8.64;100.00
18509;BME280;9383;50.928;12.116;2023-04-01T01:00:12;97068.03;;;8.64;100.00
18509;BME280;9383;50.928;12.116;2023-04-01T01:02:41;97067.16;;;8.63;100.00
18509;BME280;9383;50.928;12.116;2023-04-01T01:05:15;97068.22;;;8.61;100.00
18509;BME280;9383;50.928;12.116;2023-04-01T01:10:31;97067.28;;;8.62;100.00
18509;BME280;9383;50.928;12.116;2023-04-01T01:13:10;97066.53;;;8.60;100.00
18509;BME280;9383;50.928;12.116;2023-04-01T01:15:46;97067.34;;;8.60;100.00
18509;BME280;9383;50.928;12.116;2023-04-01T01:18:27;97064.78;;;8.58;100.00
18509;BME280;9383;50.928;12.116;2023-04-01T01:27:00;97060.56;;;8.56;100.00
18509;BME280;9383;50.928;12.116;2023-04-01T01:29:32;97068.56;;;8.54;100.00
18509;BME280;9383;50.928;12.116;2023-04-01T01:35:20;97054.59;;;8.52;100.00
18509;BME280;9383;50.928;12.116;2023-04-01T01:37:53;97048.44;;;8.52;100.00
18509;BME280;9383;50.928;12.116;2023-04-01T01:40:21;97057.38;;;8.49;100.00
18509;BME280;9383;50.928;12.116;2023-04-01T01:42:51;97052.09;;;8.49;100.00
18509;BME280;9383;50.928;12.116;2023-04-01T01:45:22;97052.25;;;8.46;100.00
18509;BME280;9383;50.928;12.116;2023-04-01T01:47:50;97056.78;;;8.44;100.00
18509;BME280;9383;50.928;12.116;2023-04-01T01:50:17;97059.41;;;8.44;100.00
18509;BME280;9383;50.928;12.116;2023-04-01T01:52:46;97065.47;;;8.46;100.00
18509;BME280;9383;50.928;12.116;2023-04-01T01:55:28;97057.63;;;8.44;100.00
18509;BME280;9383;50.928;12.116;2023-04-01T01:57:59;97000.91;;;8.05;100.00
18509;BME280;9383;50.928;12.116;2023-04-01T02:00:27;97055.06;;;8.43;100.00
18509;BME280;9383;50.928;12.116;2023-04-01T02:02:54;97054.25;;;8.42;100.00
18509;BME280;9383;50.928;12.116;2023-04-01T02:05:26;97054.25;;;8.42;100.00
18509;BME280;9383;50.928;12.116;2023-04-01T02:08:02;97049.97;;;8.40;100.00
18509;BME280;9383;50.928;12.116;2023-04-01T02:10:35;97048.16;;;8.40;100.00
18509;BME280;9383;50.928;12.116;2023-04-01T02:13:12;97052.69;;;8.38;100.00
18509;BME280;9383;50.928;12.116;2023-04-01T02:15:45;97050.06;;;8.38;100.00
18509;BME280;9383;50.928;12.116;2023-04-01T02:18:14;97051.84;;;8.38;100.00
18509;BME280;9383;50.928;12.116;2023-04-01T02:20:43;97055.44;;;8.37;100.00
18509;BME280;9383;50.928;12.116;2023-04-01T02:23:11;97054.50;;;8.38;100.00
18509;BME280;9383;50.928;12.116;2023-04-01T02:25:39;97058.16;;;8.35;100.00
18509;BME280;9383;50.928;12.116;2023-04-01T02:28:08;97059.97;;;8.35;100.00
18509;BME280;9383;50.928;12.116;2023-04-01T02:30:37;97059.09;;;8.34;100.00
18509;BME280;9383;50.928;12.116;2023-04-01T02:33:06;97057.31;;;8.35;100.00
18509;BME280;9383;50.928;12.116;2023-04-01T02:35:35;97068.78;;;8.34;100.00
18509;BME280;9383;50.928;12.116;2023-04-01T02:38:03;97058.22;;;8.34;100.00
18509;BME280;9383;50.928;12.116;2023-04-01T02:40:29;97056.53;;;8.33;100.00
18509;BME280;9383;50.928;12.116;2023-04-01T02:42:56;97054.81;;;8.31;100.00
18509;BME280;9383;50.928;12.116;2023-04-01T02:45:22;97060.03;;;8.33;100.00
18509;BME280;9383;50.928;12.116;2023-04-01T02:47:49;97063.63;;;8.32;100.00
18509;BME280;9383;50.928;12.116;2023-04-01T02:50:16;97057.47;;;8.31;100.00
18509;BME280;9383;50.928;12.116;2023-04-01T02:52:42;97064.44;;;8.33;100.00
18509;BME280;9383;50.928;12.116;2023-04-01T02:55:10;97062.75;;;8.31;100.00
18509;BME280;9383;50.928;12.116;2023-04-01T02:57:36;97066.44;;;8.29;100.00
18509;BME280;9383;50.928;12.116;2023-04-01T03:00:03;97068.03;;;8.31;100.00
18509;BME280;9383;50.928;12.116;2023-04-01T03:02:30;97068.03;;;8.31;100.00
18509;BME280;9383;50.928;12.116;2023-04-01T03:04:56;97068.13;;;8.30;100.00
18509;BME280;9383;50.928;12.116;2023-04-01T03:07:23;97075.19;;;8.29;100.00
18509;BME280;9383;50.928;12.116;2023-04-01T03:09:49;97075.19;;;8.29;100.00
18509;BME280;9383;50.928;12.116;2023-04-01T03:12:16;97063.78;;;8.29;100.00
18509;BME280;9383;50.928;12.116;2023-04-01T03:14:43;97069.91;;;8.29;100.00
18509;BME280;9383;50.928;12.116;2023-04-01T03:17:09;97069.06;;;8.29;100.00
18509;BME280;9383;50.928;12.116;2023-04-01T03:19:36;97074.44;;;8.27;100.00
18509;BME280;9383;50.928;12.116;2023-04-01T03:22:02;97066.50;;;8.27;100.00
18509;BME280;9383;50.928;12.116;2023-04-01T03:24:29;97073.56;;;8.27;100.00
18509;BME280;9383;50.928;12.116;2023-04-01T03:26:55;97068.38;;;8.25;100.00
18509;BME280;9383;50.928;12.116;2023-04-01T03:29:21;97066.69;;;8.24;100.00
18509;BME280;9383;50.928;12.116;2023-04-01T03:31:48;97065.75;;;8.25;100.00
18509;BME280;9383;50.928;12.116;2023-04-01T03:34:14;97066.69;;;8.24;100.00
18509;BME280;9383;50.928;12.116;2023-04-01T03:36:41;97070.16;;;8.25;100.00
18509;BME280;9383;50.928;12.116;2023-04-01T03:39:07;97074.59;;;8.24;100.00
18509;BME280;9383;50.928;12.116;2023-04-01T03:41:36;97074.59;;;8.24;100.00
18509;BME280;9383;50.928;12.116;2023-04-01T03:44:03;97075.53;;;8.23;100.00
18509;BME280;9383;50.928;12.116;2023-04-01T03:46:30;97074.75;;;8.21;100.00
18509;BME280;9383;50.928;12.116;2023-04-01T03:48:56;97066.94;;;8.20;100.00
18509;BME280;9383;50.928;12.116;2023-04-01T03:51:23;97078.44;;;8.19;100.00
18509;BME280;9383;50.928;12.116;2023-04-01T03:53:49;97077.56;;;8.18;100.00
18509;BME280;9383;50.928;12.116;2023-04-01T03:56:16;97084.66;;;8.18;100.00
18509;BME280;9383;50.928;12.116;2023-04-01T03:58:42;97078.50;;;8.17;100.00
18509;BME280;9383;50.928;12.116;2023-04-01T04:01:17;97083.88;;;8.15;100.00
18509;BME280;9383;50.928;12.116;2023-04-01T04:03:44;97097.16;;;8.14;100.00
18509;BME280;9383;50.928;12.116;2023-04-01T04:06:12;97086.59;;;8.14;100.00
18509;BME280;9383;50.928;12.116;2023-04-01T04:08:39;97091.88;;;8.14;100.00
18509;BME280;9383;50.928;12.116;2023-04-01T04:11:07;97098.09;;;8.13;100.00
18509;BME280;9383;50.928;12.116;2023-04-01T04:13:34;97092.88;;;8.11;100.00
18509;BME280;9383;50.928;12.116;2023-04-01T04:16:00;97100.81;;;8.11;100.00
18509;BME280;9383;50.928;12.116;2023-04-01T04:18:27;97100.81;;;8.11;100.00
18509;BME280;9383;50.928;12.116;2023-04-01T04:20:53;97096.41;;;8.12;100.00
18509;BME280;9383;50.928;12.116;2023-04-01T04:23:20;97103.44;;;8.11;100.00
18509;BME280;9383;50.928;12.116;2023-04-01T04:26:07;97102.63;;;8.11;100.00
18509;BME280;9383;50.928;12.116;2023-04-01T04:28:34;97101.75;;;8.10;100.00
18509;BME280;9383;50.928;12.116;2023-04-01T04:31:01;97106.09;;;8.11;100.00
18509;BME280;9383;50.928;12.116;2023-04-01T04:33:28;97107.88;;;8.11;100.00
18509;BME280;9383;50.928;12.116;2023-04-01T04:35:58;97105.25;;;8.11;100.00
18509;BME280;9383;50.928;12.116;2023-04-01T04:38:25;97112.22;;;8.12;100.00
18509;BME280;9383;50.928;12.116;2023-04-01T04:40:52;97114.00;;;8.11;100.00
18509;BME280;9383;50.928;12.116;2023-04-01T04:43:19;97107.97;;;8.09;100.00
18509;BME280;9383;50.928;12.116;2023-04-01T04:45:46;97104.31;;;8.12;100.00
18509;BME280;9383;50.928;12.116;2023-04-01T04:48:14;97114.00;;;8.11;100.00
18509;BME280;9383;50.928;12.116;2023-04-01T04:50:48;97110.53;;;8.11;100.00
18509;BME280;9383;50.928;12.116;2023-04-01T04:53:16;97111.28;;;8.13;100.00
18509;BME280;9383;50.928;12.116;2023-04-01T04:55:50;97113.94;;;8.13;100.00
18509;BME280;9383;50.928;12.116;2023-04-01T04:58:17;97116.41;;;8.16;100.00
18509;BME280;9383;50.928;12.116;2023-04-01T05:00:44;97121.66;;;8.16;100.00
18509;BME280;9383;50.928;12.116;2023-04-01T05:03:11;97121.66;;;8.16;100.00
18509;BME280;9383;50.928;12.116;2023-04-01T05:05:57;97116.41;;;8.16;100.00
18509;BME280;9383;50.928;12.116;2023-04-01T05:08:24;97127.72;;;8.18;100.00
18509;BME280;9383;50.928;12.116;2023-04-01T05:10:51;97122.53;;;8.16;100.00
18509;BME280;9383;50.928;12.116;2023-04-01T05:13:18;97126.88;;;8.18;100.00
18509;BME280;9383;50.928;12.116;2023-04-01T05:15:45;97124.25;;;8.18;100.00
18509;BME280;9383;50.928;12.116;2023-04-01T05:18:11;97122.44;;;8.18;100.00
18509;BME280;9383;50.928;12.116;2023-04-01T05:20:38;97132.81;;;8.21;100.00
18509;BME280;9383;50.928;12.116;2023-04-01T05:23:04;97134.56;;;8.22;100.00
18509;BME280;9383;50.928;12.116;2023-04-01T05:25:31;97130.03;;;8.24;100.00
18509;BME280;9383;50.928;12.116;2023-04-01T05:27:57;97128.22;;;8.25;100.00
18509;BME280;9383;50.928;12.116;2023-04-01T05:30:23;97138.72;;;8.26;100.00
18509;BME280;9383;50.928;12.116;2023-04-01T05:32:50;97141.28;;;8.28;100.00
18509;BME280;9383;50.928;12.116;2023-04-01T05:35:17;97139.41;;;8.30;100.00
18509;BME280;9383;50.928;12.116;2023-04-01T05:37:43;97134.03;;;8.31;100.00
18509;BME280;9383;50.928;12.116;2023-04-01T05:40:10;97137.41;;;8.34;100.00
18509;BME280;9383;50.928;12.116;2023-04-01T05:42:37;97134.78;;;8.34;100.00
18509;BME280;9383;50.928;12.116;2023-04-01T05:45:04;97140.00;;;8.35;100.00
18509;BME280;9383;50.928;12.116;2023-04-01T05:47:30;97138.97;;;8.38;100.00
18509;BME280;9383;50.928;12.116;2023-04-01T05:49:57;97141.44;;;8.41;100.00
18509;BME280;9383;50.928;12.116;2023-04-01T05:52:23;97134.28;;;8.43;100.00
18509;BME280;9383;50.928;12.116;2023-04-01T05:54:50;97138.63;;;8.44;99.99
18509;BME280;9383;50.928;12.116;2023-04-01T05:57:17;97141.13;;;8.47;99.78
18509;BME280;9383;50.928;12.116;2023-04-01T05:59:45;97140.06;;;8.50;99.64
18509;BME280;9383;50.928;12.116;2023-04-01T06:02:18;97146.06;;;8.53;99.55
18509;BME280;9383;50.928;12.116;2023-04-01T06:04:45;97138.84;;;8.57;99.71
18509;BME280;9383;50.928;12.116;2023-04-01T06:07:13;97141.38;;;8.58;99.25
18509;BME280;9383;50.928;12.116;2023-04-01T06:09:40;97141.31;;;8.60;98.29
18509;BME280;9383;50.928;12.116;2023-04-01T06:12:25;97146.50;;;8.62;97.98
18509;BME280;9383;50.928;12.116;2023-04-01T06:15:23;97152.38;;;8.67;96.96
18509;BME280;9383;50.928;12.116;2023-04-01T06:39:40;97164.38;;;8.89;96.64
18509;BME280;9383;50.928;12.116;2023-04-01T06:53:43;97166.50;;;8.98;97.93
18509;BME280;9383;50.928;12.116;2023-04-01T06:56:16;97171.41;;;9.04;98.38
18509;BME280;9383;50.928;12.116;2023-04-01T06:59:05;97167.00;;;9.05;99.04
18509;BME280;9383;50.928;12.116;2023-04-01T07:04:20;97171.91;;;9.11;99.13
18509;BME280;9383;50.928;12.116;2023-04-01T07:06:54;97168.25;;;9.13;99.31
18509;BME280;9383;50.928;12.116;2023-04-01T07:09:32;97169.00;;;9.15;99.71
18509;BME280;9383;50.928;12.116;2023-04-01T07:12:15;97168.94;;;9.17;98.93
18509;BME280;9383;50.928;12.116;2023-04-01T07:14:48;97168.63;;;9.22;99.55
18509;BME280;9383;50.928;12.116;2023-04-01T07:17:20;97177.50;;;9.21;98.95
18509;BME280;9383;50.928;12.116;2023-04-01T07:19:57;97165.84;;;9.25;99.32
18509;BME280;9383;50.928;12.116;2023-04-01T07:22:50;97172.66;;;9.29;98.98
18509;BME280;9383;50.928;12.116;2023-04-01T07:27:55;97171.44;;;9.35;98.75
18509;BME280;9383;50.928;12.116;2023-04-01T07:30:23;97165.19;;;9.36;97.84
18509;BME280;9383;50.928;12.116;2023-04-01T07:33:02;97178.34;;;9.37;96.82
18509;BME280;9383;50.928;12.116;2023-04-01T07:35:50;97173.53;;;9.44;97.54
18509;BME280;9383;50.928;12.116;2023-04-01T07:38:35;97179.59;;;9.46;96.53
18509;BME280;9383;50.928;12.116;2023-04-01T07:41:23;97184.63;;;9.51;96.90
18509;BME280;9383;50.928;12.116;2023-04-01T07:44:10;97188.84;;;9.53;95.00
18509;BME280;9383;50.928;12.116;2023-04-01T07:47:01;97192.16;;;9.57;95.40
18509;BME280;9383;50.928;12.116;2023-04-01T07:57:32;97198.28;;;9.74;94.73
18509;BME280;9383;50.928;12.116;2023-04-01T08:05:49;97190.25;;;9.90;94.85
18509;BME280;9383;50.928;12.116;2023-04-01T08:08:33;97188.25;;;9.93;94.62
18509;BME280;9383;50.928;12.116;2023-04-01T08:11:31;97195.19;;;9.96;94.07
18509;BME280;9383;50.928;12.116;2023-04-01T08:14:22;97199.25;;;10.02;92.84
18509;BME280;9383;50.928;12.116;2023-04-01T08:22:44;97201.63;;;10.21;93.35
18509;BME280;9383;50.928;12.116;2023-04-01T08:25:21;97194.16;;;10.27;92.53
18509;BME280;9383;50.928;12.116;2023-04-01T08:28:20;97197.16;;;10.36;90.80
18509;BME280;9383;50.928;12.116;2023-04-01T08:33:28;97194.91;;;10.44;86.39
18509;BME280;9383;50.928;12.116;2023-04-01T08:36:40;97199.06;;;10.48;86.54
18509;BME280;9383;50.928;12.116;2023-04-01T08:39:23;97197.94;;;10.52;85.77
18509;BME280;9383;50.928;12.116;2023-04-01T08:42:18;97191.13;;;10.63;86.08
18509;BME280;9383;50.928;12.116;2023-04-01T08:45:16;97190.72;;;10.69;85.42
18509;BME280;9383;50.928;12.116;2023-04-01T08:51:14;97193.97;;;10.87;83.91
18509;BME280;9383;50.928;12.116;2023-04-01T08:54:10;97206.34;;;11.01;84.79
18509;BME280;9383;50.928;12.116;2023-04-01T08:57:00;97203.72;;;11.14;84.47
18509;BME280;9383;50.928;12.116;2023-04-01T08:59:47;97191.50;;;11.26;85.48
18509;BME280;9383;50.928;12.116;2023-04-01T09:08:17;97205.34;;;11.44;83.37
18509;BME280;9383;50.928;12.116;2023-04-01T09:10:55;97202.47;;;11.47;82.67
18509;BME280;9383;50.928;12.116;2023-04-01T09:16:37;97211.56;;;11.43;79.09
18509;BME280;9383;50.928;12.116;2023-04-01T09:19:18;97221.25;;;11.44;79.69
18509;BME280;9383;50.928;12.116;2023-04-01T09:22:09;97218.81;;;11.54;80.68
18509;BME280;9383;50.928;12.116;2023-04-01T09:24:45;97212.78;;;11.65;81.40
18509;BME280;9383;50.928;12.116;2023-04-01T09:27:43;97228.94;;;11.75;79.66
18509;BME280;9383;50.928;12.116;2023-04-01T09:30:37;97228.94;;;11.75;77.14
18509;BME280;9383;50.928;12.116;2023-04-01T09:39:36;97217.19;;;11.92;78.84
18509;BME280;9383;50.928;12.116;2023-04-01T09:42:27;97237.38;;;11.94;77.69
18509;BME280;9383;50.928;12.116;2023-04-01T09:45:17;97231.72;;;11.86;75.61
18509;BME280;9383;50.928;12.116;2023-04-01T09:54:20;97225.56;;;11.86;75.42
18509;BME280;9383;50.928;12.116;2023-04-01T10:03:45;97218.25;;;11.89;76.11
18509;BME280;9383;50.928;12.116;2023-04-01T10:20:36;97229.00;;;11.60;75.84
18509;BME280;9383;50.928;12.116;2023-04-01T11:09:47;97241.78;;;11.68;74.52
18509;BME280;9383;50.928;12.116;2023-04-01T11:12:52;97227.88;;;11.64;74.28
18509;BME280;9383;50.928;12.116;2023-04-01T11:18:09;97237.53;;;11.65;75.49
18509;BME280;9383;50.928;12.116;2023-04-01T11:21:20;97235.97;;;11.76;76.52
18509;BME280;9383;50.928;12.116;2023-04-01T11:24:11;97237.59;;;11.91;76.37
18509;BME280;9383;50.928;12.116;2023-04-01T11:30:23;97242.09;;;12.04;76.19
18509;BME280;9383;50.928;12.116;2023-04-01T11:33:00;97244.16;;;11.99;75.40
18509;BME280;9383;50.928;12.116;2023-04-01T11:35:48;97247.47;;;11.89;76.34
18509;BME280;9383;50.928;12.116;2023-04-01T11:38:41;97244.38;;;11.82;77.00
18509;BME280;9383;50.928;12.116;2023-04-01T11:41:26;97245.75;;;11.88;77.19
18509;BME280;9383;50.928;12.116;2023-04-01T11:47:22;97257.06;;;11.64;78.30
18509;BME280;9383;50.928;12.116;2023-04-01T11:53:05;97261.50;;;11.51;80.13
18509;BME280;9383;50.928;12.116;2023-04-01T11:58:50;97266.38;;;11.57;81.90
18509;BME280;9383;50.928;12.116;2023-04-01T12:05:08;97257.13;;;11.50;83.00
18509;BME280;9383;50.928;12.116;2023-04-01T12:08:00;97260.13;;;11.31;83.90
18509;BME280;9383;50.928;12.116;2023-04-01T12:13:24;97258.59;;;11.14;84.19
18509;BME280;9383;50.928;12.116;2023-04-01T12:16:24;97261.25;;;11.14;85.25
18509;BME280;9383;50.928;12.116;2023-04-01T12:19:26;97263.41;;;11.21;85.17
18509;BME280;9383;50.928;12.116;2023-04-01T12:22:08;97269.53;;;11.22;87.30
18509;BME280;9383;50.928;12.116;2023-04-01T12:24:56;97264.06;;;11.25;88.08
18509;BME280;9383;50.928;12.116;2023-04-01T12:27:40;97260.81;;;11.20;91.03
18509;BME280;9383;50.928;12.116;2023-04-01T12:30:35;97257.03;;;11.24;89.30
18509;BME280;9383;50.928;12.116;2023-04-01T12:39:17;97265.19;;;11.48;90.29
18509;BME280;9383;50.928;12.116;2023-04-01T12:41:59;97264.47;;;11.59;88.61
18509;BME280;9383;50.928;12.116;2023-04-01T12:44:48;97270.53;;;11.61;86.54
18509;BME280;9383;50.928;12.116;2023-04-01T12:53:33;97270.72;;;11.58;85.82
18509;BME280;9383;50.928;12.116;2023-04-01T12:58:52;97265.56;;;11.70;87.96
18509;BME280;9383;50.928;12.116;2023-04-01T13:07:30;97272.88;;;11.66;85.80
18509;BME280;9383;50.928;12.116;2023-04-01T13:10:02;97266.00;;;11.63;87.24
18509;BME280;9383;50.928;12.116;2023-04-01T13:12:50;97272.22;;;11.62;86.34
18509;BME280;9383;50.928;12.116;2023-04-01T13:15:41;97269.25;;;11.67;87.95
18509;BME280;9383;50.928;12.116;2023-04-01T13:24:09;97272.50;;;11.85;84.18
18509;BME280;9383;50.928;12.116;2023-04-01T13:27:05;97281.13;;;11.89;85.12
18509;BME280;9383;50.928;12.116;2023-04-01T13:29:44;97283.47;;;11.93;84.87
18509;BME280;9383;50.928;12.116;2023-04-01T13:32:20;97278.88;;;11.95;84.30
18509;BME280;9383;50.928;12.116;2023-04-01T13:38:01;97278.69;;;11.99;84.03
18509;BME280;9383;50.928;12.116;2023-04-01T13:43:25;97283.84;;;12.02;85.82
18509;BME280;9383;50.928;12.116;2023-04-01T13:46:01;97284.72;;;12.01;84.66
18509;BME280;9383;50.928;12.116;2023-04-01T13:48:40;97279.84;;;11.94;83.86
18509;BME280;9383;50.928;12.116;2023-04-01T14:04:53;97285.69;;;11.87;83.61
18509;BME280;9383;50.928;12.116;2023-04-01T14:07:41;97284.81;;;11.86;83.79
18509;BME280;9383;50.928;12.116;2023-04-01T14:10:25;97291.50;;;11.79;82.03
18509;BME280;9383;50.928;12.116;2023-04-01T14:32:07;97292.09;;;11.70;86.20
18509;BME280;9383;50.928;12.116;2023-04-01T14:42:59;97304.94;;;11.63;85.12
18509;BME280;9383;50.928;12.116;2023-04-01T14:48:28;97308.03;;;11.70;85.66
18509;BME280;9383;50.928;12.116;2023-04-01T14:54:02;97312.75;;;11.79;86.29
18509;BME280;9383;50.928;12.116;2023-04-01T14:56:38;97308.03;;;11.70;87.43
18509;BME280;9383;50.928;12.116;2023-04-01T14:59:10;97313.41;;;11.55;87.34
18509;BME280;9383;50.928;12.116;2023-04-01T15:01:55;97318.50;;;11.58;88.85
18509;BME280;9383;50.928;12.116;2023-04-01T15:05:13;97312.66;;;11.53;89.43
18509;BME280;9383;50.928;12.116;2023-04-01T15:10:29;97307.53;;;11.50;90.71
18509;BME280;9383;50.928;12.116;2023-04-01T15:18:53;97318.13;;;11.64;90.76
18509;BME280;9383;50.928;12.116;2023-04-01T15:24:26;97331.06;;;11.69;91.25
18509;BME280;9383;50.928;12.116;2023-04-01T15:27:24;97324.91;;;11.68;90.72
18509;BME280;9383;50.928;12.116;2023-04-01T15:38:39;97335.53;;;11.68;89.30
18509;BME280;9383;50.928;12.116;2023-04-01T15:44:46;97337.44;;;11.66;89.38
18509;BME280;9383;50.928;12.116;2023-04-01T15:47:33;97344.66;;;11.64;89.25
18509;BME280;9383;50.928;12.116;2023-04-01T15:50:21;97345.16;;;11.57;90.56
18509;BME280;9383;50.928;12.116;2023-04-01T15:53:15;97343.09;;;11.47;90.67
18509;BME280;9383;50.928;12.116;2023-04-01T15:55:50;97351.06;;;11.47;91.28
18509;BME280;9383;50.928;12.116;2023-04-01T15:58:41;97355.41;;;11.48;90.68
18509;BME280;9383;50.928;12.116;2023-04-01T16:04:37;97359.00;;;11.47;91.76
18509;BME280;9383;50.928;12.116;2023-04-01T16:07:21;97358.34;;;11.44;91.87
18509;BME280;9383;50.928;12.116;2023-04-01T16:09:53;97362.03;;;11.41;92.81
18509;BME280;9383;50.928;12.116;2023-04-01T16:12:44;97331.47;;;11.21;92.48
18509;BME280;9383;50.928;12.116;2023-04-01T16:23:39;97372.28;;;11.47;92.95
18509;BME280;9383;50.928;12.116;2023-04-01T16:26:27;97380.25;;;11.47;92.77
18509;BME280;9383;50.928;12.116;2023-04-01T16:29:12;97382.78;;;11.49;93.12
18509;BME280;9383;50.928;12.116;2023-04-01T16:34:58;97384.47;;;11.50;93.18
18509;BME280;9383;50.928;12.116;2023-04-01T16:37:43;97384.47;;;11.50;93.06
18509;BME280;9383;50.928;12.116;2023-04-01T16:43:25;97395.09;;;11.50;93.11
18509;BME280;9383;50.928;12.116;2023-04-01T16:49:00;97405.63;;;11.51;93.12
18509;BME280;9383;50.928;12.116;2023-04-01T16:59:38;97407.53;;;11.49;93.39
18509;BME280;9383;50.928;12.116;2023-04-01T17:04:41;97419.09;;;11.48;93.27
18509;BME280;9383;50.928;12.116;2023-04-01T17:10:37;97427.13;;;11.47;93.21
18509;BME280;9383;50.928;12.116;2023-04-01T17:15:46;97435.50;;;11.40;94.03
18509;BME280;9383;50.928;12.116;2023-04-01T17:21:22;97440.22;;;11.35;94.11
18509;BME280;9383;50.928;12.116;2023-04-01T17:23:52;97446.59;;;11.33;94.42
18509;BME280;9383;50.928;12.116;2023-04-01T17:29:05;97453.97;;;11.28;94.85
18509;BME280;9383;50.928;12.116;2023-04-01T17:34:25;97464.09;;;11.21;95.47
18509;BME280;9383;50.928;12.116;2023-04-01T17:37:24;97467.91;;;11.17;96.12
18509;BME280;9383;50.928;12.116;2023-04-01T17:40:21;97472.72;;;11.10;96.58
18509;BME280;9383;50.928;12.116;2023-04-01T17:43:06;97470.34;;;11.05;96.63
18509;BME280;9383;50.928;12.116;2023-04-01T17:45:55;97482.94;;;11.02;96.76
18509;BME280;9383;50.928;12.116;2023-04-01T17:48:44;97480.56;;;10.97;97.15
18509;BME280;9383;50.928;12.116;2023-04-01T17:54:19;97480.06;;;10.90;97.28
18509;BME280;9383;50.928;12.116;2023-04-01T18:02:37;97494.72;;;10.81;97.55
18509;BME280;9383;50.928;12.116;2023-04-01T18:05:46;97500.22;;;10.78;97.80
18509;BME280;9383;50.928;12.116;2023-04-01T18:11:31;97507.69;;;10.72;98.31
18509;BME280;9383;50.928;12.116;2023-04-01T18:14:31;97508.72;;;10.69;98.21
18509;BME280;9383;50.928;12.116;2023-04-01T18:17:21;97517.69;;;10.66;98.54
18509;BME280;9383;50.928;12.116;2023-04-01T18:20:07;97516.84;;;10.66;98.34
18509;BME280;9383;50.928;12.116;2023-04-01T18:22:47;97524.97;;;10.63;98.47
18509;BME280;9383;50.928;12.116;2023-04-01T18:25:36;97525.06;;;10.61;99.04
18509;BME280;9383;50.928;12.116;2023-04-01T18:28:14;97533.19;;;10.58;98.74
18509;BME280;9383;50.928;12.116;2023-04-01T18:36:39;97536.19;;;10.52;99.36
18509;BME280;9383;50.928;12.116;2023-04-01T18:39:15;97539.88;;;10.49;99.70
18509;BME280;9383;50.928;12.116;2023-04-01T18:41:49;97540.78;;;10.48;99.58
18509;BME280;9383;50.928;12.116;2023-04-01T18:44:41;97546.28;;;10.45;99.67
18509;BME280;9383;50.928;12.116;2023-04-01T18:47:38;97546.47;;;10.42;99.93
18509;BME280;9383;50.928;12.116;2023-04-01T18:50:21;97560.66;;;10.41;99.61
18509;BME280;9383;50.928;12.116;2023-04-01T18:53:19;97559.09;;;10.37;99.74
18509;BME280;9383;50.928;12.116;2023-04-01T18:55:49;97566.25;;;10.35;100.00
18509;BME280;9383;50.928;12.116;2023-04-01T18:58:20;97571.66;;;10.33;99.99
18509;BME280;9383;50.928;12.116;2023-04-01T19:01:25;97576.19;;;10.31;100.00
18509;BME280;9383;50.928;12.116;2023-04-01T19:06:51;97583.50;;;10.26;100.00
18509;BME280;9383;50.928;12.116;2023-04-01T19:09:23;97585.31;;;10.25;100.00
18509;BME280;9383;50.928;12.116;2023-04-01T19:27:27;97600.44;;;10.07;100.00
18509;BME280;9383;50.928;12.116;2023-04-01T19:38:04;97618.44;;;10.01;100.00
18509;BME280;9383;50.928;12.116;2023-04-01T19:40:51;97618.50;;;9.99;100.00
18509;BME280;9383;50.928;12.116;2023-04-01T19:46:42;97625.75;;;9.95;100.00
18509;BME280;9383;50.928;12.116;2023-04-01T19:49:23;97625.94;;;9.92;100.00
18509;BME280;9383;50.928;12.116;2023-04-01T19:52:11;97626.88;;;9.91;100.00
18509;BME280;9383;50.928;12.116;2023-04-01T19:55:04;97632.16;;;9.91;100.00
18509;BME280;9383;50.928;12.116;2023-04-01T20:00:40;97641.22;;;9.87;100.00
18509;BME280;9383;50.928;12.116;2023-04-01T20:09:26;97658.19;;;9.83;100.00
18509;BME280;9383;50.928;12.116;2023-04-01T20:14:50;97662.00;;;9.77;100.00
18509;BME280;9383;50.928;12.116;2023-04-01T20:17:33;97663.88;;;9.75;100.00
18509;BME280;9383;50.928;12.116;2023-04-01T20:25:20;97678.38;;;9.68;100.00
18509;BME280;9383;50.928;12.116;2023-04-01T20:28:12;97684.50;;;9.68;100.00